ABT weather

Agua Blanca Airport
Piedras, Tolima Department, Colombia

Public forecast

Using degrees Celsius for public forecast. Weather courtesy of forecast.io.

Closest aviation weather report (METAR) to Agua Blanca Airport

Report is more than 2 hours old.

Closest report is Perales Airport, 8.8 nm (16.3 km) WSW. Retrieved 2019/12/13 04:00 UTC (4 hours ago):

SKIB 130400Z 24004KT 9999 SCT012 BKN100 21/21 A2997

Closest aviation forecast (TAF) to Agua Blanca Airport

Forecast is more than 12 hours old.

Closest forecast is El Eden Airport, 46.3 nm (85.7 km) W. Retrieved 2017/01/12 18:15 UTC (3 years ago):

TAF TAF SKAR 121700Z 1218/1318 33006KT 9999 SCT017 SCT090 TEMPO 1221/1224 8000 VCSH SCT017TCU PROB40 TEMPO 1300/1300 7000 TSRA SCT013CB BECMG 1302/1303 VRB02KT TEMPO 1311/1313 7000 VCFG SCT015 TX26/1220Z TN18/1311Z